createdAt,value
2019-03-29T00:01:51.745Z,15.87
2019-03-29T00:04:21.801Z,14.60
2019-03-29T00:06:51.837Z,16.77
2019-03-29T00:12:01.280Z,14.17
2019-03-29T00:14:31.322Z,15.83
2019-03-29T00:17:01.658Z,12.70
2019-03-29T00:19:31.712Z,14.37
2019-03-29T00:22:01.749Z,14.57
2019-03-29T00:24:31.814Z,16.97
2019-03-29T00:27:01.843Z,15.73
2019-03-29T00:29:31.901Z,13.47
2019-03-29T00:32:01.951Z,14.90
2019-03-29T00:34:32.001Z,13.23
2019-03-29T00:37:02.379Z,16.97
2019-03-29T00:42:11.808Z,14.53
2019-03-29T00:44:41.855Z,15.07
2019-03-29T00:47:11.898Z,13.67
2019-03-29T00:49:41.936Z,16.87
2019-03-29T00:52:11.972Z,15.27
2019-03-29T00:54:42.051Z,13.00
2019-03-29T00:57:12.078Z,14.20
2019-03-29T00:59:42.474Z,13.57
2019-03-29T01:02:12.512Z,15.20
2019-03-29T01:04:42.893Z,16.07
2019-03-29T01:07:12.921Z,17.17
2019-03-29T01:12:22.338Z,16.20
2019-03-29T01:14:52.402Z,16.57
2019-03-29T01:17:22.449Z,17.07
2019-03-29T01:19:52.824Z,19.83
2019-03-29T01:22:22.857Z,15.87
2019-03-29T01:27:32.615Z,15.87
2019-03-29T01:30:02.773Z,17.97
2019-03-29T01:32:33.281Z,15.97
2019-03-29T01:37:42.579Z,17.37
2019-03-29T01:42:51.997Z,20.20
2019-03-29T01:48:03.922Z,23.10
2019-03-29T01:50:34.991Z,20.23
2019-03-29T01:53:03.999Z,20.43
2019-03-29T01:55:34.057Z,19.67
2019-03-29T01:58:04.102Z,20.00
2019-03-29T02:00:34.153Z,19.23
2019-03-29T02:03:04.189Z,20.47
2019-03-29T02:08:13.623Z,18.27
2019-03-29T02:10:44.025Z,18.13
2019-03-29T02:13:14.059Z,18.43
2019-03-29T02:18:24.027Z,18.10
2019-03-29T02:20:54.326Z,22.17
2019-03-29T02:28:44.842Z,19.20
2019-03-29T02:31:13.495Z,17.77
2019-03-29T02:39:02.281Z,19.90
2019-03-29T02:41:32.316Z,24.13
2019-03-29T02:46:42.400Z,19.37
2019-03-29T02:49:13.164Z,20.53
2019-03-29T02:54:22.214Z,19.90
2019-03-29T02:56:52.244Z,21.90
2019-03-29T03:02:02.218Z,19.83
2019-03-29T03:07:11.645Z,21.77
2019-03-29T03:12:21.404Z,17.80
2019-03-29T03:17:31.129Z,17.87
2019-03-29T03:22:40.956Z,20.50
2019-03-29T03:27:50.613Z,16.97
2019-03-29T03:30:20.659Z,18.57
2019-03-29T03:32:50.736Z,19.47
2019-03-29T03:35:20.751Z,17.97
2019-03-29T03:40:30.468Z,20.17
2019-03-29T03:43:00.510Z,18.33
2019-03-29T03:48:09.909Z,19.20
2019-03-29T03:50:40.093Z,19.47
2019-03-29T03:53:10.008Z,21.70
2019-03-29T03:58:19.423Z,23.83
2019-03-29T04:00:52.564Z,23.90
2019-03-29T04:03:22.589Z,25.37
2019-03-29T04:08:32.013Z,23.87
2019-03-29T04:11:02.390Z,24.10
2019-03-29T04:16:12.250Z,30.90
2019-03-29T04:18:42.318Z,32.87
2019-03-29T04:23:51.740Z,31.20
2019-03-29T04:29:04.717Z,22.30
2019-03-29T04:31:31.216Z,29.73
2019-03-29T04:34:01.257Z,26.87
2019-03-29T04:39:10.945Z,25.00
2019-03-29T04:41:41.271Z,23.70
2019-03-29T04:52:10.044Z,21.23
2019-03-29T04:57:20.074Z,23.80
2019-03-29T05:02:29.850Z,31.17
2019-03-29T05:07:39.288Z,26.40
2019-03-29T05:12:48.700Z,27.70
2019-03-29T05:17:58.117Z,28.83
2019-03-29T05:20:28.163Z,34.27
2019-03-29T05:22:58.196Z,33.40
2019-03-29T05:28:07.617Z,32.93
2019-03-29T05:30:38.011Z,35.37
2019-03-29T05:33:08.050Z,34.47
2019-03-29T05:35:38.101Z,38.13
2019-03-29T05:38:08.145Z,31.47
2019-03-29T05:43:17.558Z,34.27
2019-03-29T05:48:27.280Z,37.87
2019-03-29T05:50:57.328Z,36.20
2019-03-29T05:56:07.017Z,35.70
2019-03-29T05:58:37.055Z,35.13
2019-03-29T06:01:07.468Z,35.93
2019-03-29T06:03:37.503Z,38.23
2019-03-29T06:06:07.898Z,31.40
2019-03-29T06:08:37.950Z,29.57
2019-03-29T06:11:08.354Z,33.13
2019-03-29T06:13:38.392Z,25.33
2019-03-29T06:18:47.812Z,30.20
2019-03-29T06:21:17.864Z,30.73
2019-03-29T06:23:48.487Z,30.93
2019-03-29T06:26:18.446Z,30.43
2019-03-29T06:28:48.578Z,26.23
2019-03-29T06:33:58.276Z,28.80
2019-03-29T06:41:47.433Z,34.97
2019-03-29T06:46:57.225Z,31.83
2019-03-29T06:52:07.367Z,31.73
2019-03-29T06:54:37.690Z,31.37
2019-03-29T06:57:07.754Z,31.13
2019-03-29T06:59:38.126Z,34.70
2019-03-29T07:02:08.169Z,32.87
2019-03-29T07:07:17.574Z,34.53
2019-03-29T07:12:27.060Z,31.67
2019-03-29T07:17:37.017Z,33.67
2019-03-29T07:22:46.425Z,32.20
2019-03-29T07:27:56.135Z,32.50
2019-03-29T07:30:26.176Z,36.37
2019-03-29T07:32:56.569Z,40.30
2019-03-29T07:38:05.980Z,34.37
2019-03-29T07:40:36.014Z,36.37
2019-03-29T07:43:06.060Z,36.80
2019-03-29T07:48:15.732Z,37.80
2019-03-29T07:50:45.767Z,41.17
2019-03-29T07:53:15.812Z,37.83
2019-03-29T08:01:04.890Z,39.80
2019-03-29T08:06:14.635Z,40.03
2019-03-29T08:11:26.469Z,40.90
2019-03-29T08:16:33.496Z,41.13
2019-03-29T08:19:03.536Z,39.73
2019-03-29T08:21:33.617Z,40.17
2019-03-29T08:29:22.406Z,41.90
2019-03-29T08:31:55.354Z,36.10
2019-03-29T08:34:24.568Z,34.97
2019-03-29T08:39:31.939Z,33.10
2019-03-29T08:42:02.010Z,32.03
2019-03-29T08:44:32.052Z,38.53
2019-03-29T08:49:41.768Z,37.67
2019-03-29T08:52:12.095Z,35.30
2019-03-29T08:54:42.154Z,32.60
2019-03-29T08:59:51.879Z,22.37
2019-03-29T09:02:24.907Z,22.07
2019-03-29T09:07:44.028Z,17.57
2019-03-29T09:10:01.430Z,11.03
2019-03-29T09:12:31.882Z,11.57
2019-03-29T09:15:04.044Z,12.77
2019-03-29T09:20:11.712Z,13.53
2019-03-29T09:22:41.790Z,15.33
2019-03-29T09:27:51.241Z,22.13
2019-03-29T09:33:00.665Z,24.07
2019-03-29T09:35:31.103Z,21.27
2019-03-29T09:40:40.528Z,18.43
2019-03-29T09:43:10.589Z,18.23
2019-03-29T09:48:20.365Z,19.83
2019-03-29T09:50:50.918Z,18.77
2019-03-29T09:56:00.106Z,22.83
2019-03-29T10:01:09.544Z,21.50
2019-03-29T10:03:39.595Z,20.57
2019-03-29T10:06:09.988Z,18.47
2019-03-29T10:11:22.142Z,17.57
2019-03-29T10:16:29.832Z,13.47
2019-03-29T10:18:59.897Z,14.50
2019-03-29T10:21:29.940Z,16.37
2019-03-29T10:26:39.663Z,12.30
2019-03-29T10:31:49.190Z,11.67
2019-03-29T10:34:19.238Z,9.63
2019-03-29T10:39:28.670Z,11.87
2019-03-29T10:44:38.092Z,9.70
2019-03-29T10:49:47.505Z,11.13
2019-03-29T10:52:17.550Z,7.97
2019-03-29T10:54:49.935Z,9.50
2019-03-29T10:59:57.049Z,8.70
2019-03-29T11:02:27.079Z,9.23
2019-03-29T11:04:57.148Z,9.47
2019-03-29T11:10:06.531Z,8.70
2019-03-29T11:12:36.565Z,9.30
2019-03-29T11:15:06.951Z,9.97
2019-03-29T11:17:37.045Z,8.53
2019-03-29T11:22:46.814Z,9.43
2019-03-29T11:25:16.866Z,8.27
2019-03-29T11:30:26.268Z,8.47
2019-03-29T11:32:56.310Z,9.23
2019-03-29T11:38:05.996Z,8.03
2019-03-29T11:40:36.020Z,7.77
2019-03-29T11:43:06.086Z,12.50
2019-03-29T11:48:15.860Z,9.57
2019-03-29T11:50:45.878Z,8.93
2019-03-29T11:53:15.954Z,9.98
2019-03-29T12:01:05.581Z,14.93
2019-03-29T12:06:14.413Z,8.27
2019-03-29T12:11:24.170Z,8.23
2019-03-29T12:16:33.591Z,9.28
2019-03-29T12:24:22.415Z,8.67
2019-03-29T12:26:55.042Z,9.08
2019-03-29T12:32:02.209Z,7.28
2019-03-29T12:37:11.954Z,7.40
2019-03-29T12:39:42.002Z,7.00
2019-03-29T12:42:12.048Z,7.37
2019-03-29T12:47:21.472Z,7.47
2019-03-29T12:49:51.541Z,10.30
2019-03-29T12:55:00.974Z,11.68
2019-03-29T13:00:10.425Z,10.68
2019-03-29T13:02:40.465Z,10.50
2019-03-29T13:05:10.532Z,12.53
2019-03-29T13:07:40.563Z,12.47
2019-03-29T13:10:10.613Z,9.75
2019-03-29T13:15:20.021Z,10.95
2019-03-29T13:20:29.473Z,11.15
2019-03-29T13:22:59.517Z,11.73
2019-03-29T13:25:29.565Z,12.63
2019-03-29T13:27:59.770Z,13.40
2019-03-29T13:30:29.667Z,13.83
2019-03-29T13:32:59.713Z,14.33
2019-03-29T13:35:30.123Z,13.23
2019-03-29T13:40:39.532Z,11.28
2019-03-29T13:43:09.580Z,14.33
2019-03-29T13:45:39.919Z,11.50
2019-03-29T13:50:49.674Z,13.18
2019-03-29T13:53:19.737Z,13.05
2019-03-29T13:55:49.791Z,12.60
2019-03-29T14:00:59.203Z,12.57
2019-03-29T14:03:29.582Z,12.13
2019-03-29T14:06:00.010Z,11.03
2019-03-29T14:08:30.098Z,13.05
2019-03-29T14:11:00.143Z,12.20
2019-03-29T14:13:30.260Z,11.35
2019-03-29T14:16:00.322Z,12.35
2019-03-29T14:21:10.235Z,12.28
2019-03-29T14:23:40.266Z,12.05
2019-03-29T14:26:10.324Z,11.90
2019-03-29T14:28:40.363Z,11.27
2019-03-29T14:31:10.714Z,11.80
2019-03-29T14:33:40.726Z,12.88
2019-03-29T14:36:10.825Z,12.10
2019-03-29T14:38:41.190Z,13.77
2019-03-29T14:41:11.246Z,11.70
2019-03-29T14:43:41.282Z,12.13
2019-03-29T14:46:11.323Z,12.82
2019-03-29T14:48:41.383Z,11.85
2019-03-29T14:51:11.434Z,13.03
2019-03-29T14:53:41.478Z,12.25
2019-03-29T14:56:11.533Z,19.42
2019-03-29T14:58:41.586Z,11.97
2019-03-29T15:01:11.630Z,12.58
2019-03-29T15:03:41.668Z,11.40
2019-03-29T15:06:12.059Z,12.68
2019-03-29T15:08:42.391Z,11.97
2019-03-29T15:11:22.205Z,10.75
2019-03-29T15:13:42.809Z,15.00
2019-03-29T15:16:12.870Z,11.33
2019-03-29T15:18:42.912Z,10.23
2019-03-29T15:21:13.268Z,10.30
2019-03-29T15:23:43.591Z,11.05
2019-03-29T15:26:13.641Z,10.90
2019-03-29T15:28:43.930Z,10.53
2019-03-29T15:31:13.985Z,10.45
2019-03-29T15:33:44.376Z,11.78
2019-03-29T15:36:14.701Z,8.78
2019-03-29T15:38:44.744Z,11.43
2019-03-29T15:41:15.135Z,10.40
2019-03-29T15:43:45.460Z,9.73
2019-03-29T15:46:15.774Z,11.38
2019-03-29T15:48:46.107Z,9.70
2019-03-29T15:51:16.176Z,11.75
2019-03-29T15:53:46.213Z,11.93
2019-03-29T15:56:16.266Z,11.15
2019-03-29T15:58:46.634Z,10.95
2019-03-29T16:01:16.626Z,12.78
2019-03-29T16:03:46.666Z,13.93
2019-03-29T16:08:56.380Z,9.30
2019-03-29T16:11:26.786Z,12.45
2019-03-29T16:13:57.129Z,10.55
2019-03-29T16:16:27.159Z,9.13
2019-03-29T16:18:57.201Z,11.12
2019-03-29T16:21:27.245Z,8.18
2019-03-29T16:26:36.657Z,9.80
2019-03-29T16:29:06.684Z,9.75
2019-03-29T16:34:16.392Z,10.85
2019-03-29T16:39:26.174Z,9.65
2019-03-29T16:41:56.232Z,10.23
2019-03-29T16:44:26.295Z,9.58
2019-03-29T16:46:56.335Z,13.22
2019-03-29T16:49:26.388Z,10.20
2019-03-29T16:51:56.483Z,7.20
2019-03-29T16:54:26.518Z,9.70
2019-03-29T16:56:56.581Z,17.60
2019-03-29T16:59:26.678Z,14.10
2019-03-29T17:01:57.022Z,16.65
2019-03-29T17:04:27.051Z,9.88
2019-03-29T17:09:36.466Z,7.67
2019-03-29T17:12:06.782Z,7.75
2019-03-29T17:14:37.153Z,8.48
2019-03-29T17:17:07.437Z,11.03
2019-03-29T17:19:37.761Z,9.55
2019-03-29T17:22:08.087Z,11.97
2019-03-29T17:27:17.845Z,7.95
2019-03-29T17:29:48.385Z,6.97
2019-03-29T17:32:21.426Z,7.45
2019-03-29T17:34:49.072Z,6.60
2019-03-29T17:37:19.332Z,7.80
2019-03-29T17:39:49.368Z,8.30
2019-03-29T17:42:19.440Z,7.85
2019-03-29T17:44:49.477Z,9.93
2019-03-29T17:47:19.800Z,8.40
2019-03-29T17:49:49.848Z,6.12
2019-03-29T17:52:20.284Z,6.93
2019-03-29T17:54:50.678Z,5.53
2019-03-29T18:00:00.450Z,13.83
2019-03-29T18:02:30.498Z,16.00
2019-03-29T18:07:40.518Z,14.90
2019-03-29T18:10:10.554Z,14.07
2019-03-29T18:12:40.958Z,10.17
2019-03-29T18:15:10.986Z,12.30
2019-03-29T18:20:20.766Z,11.53
2019-03-29T18:22:50.804Z,11.40
2019-03-29T18:25:20.849Z,7.22
2019-03-29T18:30:36.029Z,10.53
2019-03-29T18:33:06.084Z,10.32
2019-03-29T18:38:15.478Z,8.90
2019-03-29T18:40:45.506Z,10.53
2019-03-29T18:43:15.553Z,11.90
2019-03-29T18:45:45.588Z,8.80
2019-03-29T18:48:15.982Z,9.77
2019-03-29T18:50:46.015Z,9.63
2019-03-29T18:53:16.081Z,9.90
2019-03-29T18:58:25.770Z,9.67
2019-03-29T19:00:56.114Z,8.77
2019-03-29T19:03:26.153Z,8.30
2019-03-29T19:05:56.188Z,11.17
2019-03-29T19:08:26.235Z,14.83
2019-03-29T19:10:56.576Z,15.27
2019-03-29T19:13:26.993Z,17.40
2019-03-29T19:15:57.040Z,17.17
2019-03-29T19:18:27.087Z,14.67
2019-03-29T19:20:57.139Z,13.50
2019-03-29T19:23:27.194Z,11.60
2019-03-29T19:25:57.228Z,13.30
2019-03-29T19:28:27.607Z,12.50
2019-03-29T19:30:57.656Z,15.03
2019-03-29T19:33:27.702Z,13.40
2019-03-29T19:35:58.076Z,11.83
2019-03-29T19:38:28.395Z,12.03
2019-03-29T19:40:58.468Z,13.37
2019-03-29T19:43:28.815Z,14.13
2019-03-29T19:45:58.859Z,12.53
2019-03-29T19:48:28.902Z,13.60
2019-03-29T19:50:58.937Z,14.00
2019-03-29T19:53:29.002Z,10.83
2019-03-29T19:58:39.049Z,8.97
2019-03-29T20:01:09.075Z,9.77
2019-03-29T20:03:39.124Z,8.50
2019-03-29T20:06:09.402Z,7.80
2019-03-29T20:08:39.716Z,6.60
2019-03-29T20:11:09.744Z,6.97
2019-03-29T20:13:39.791Z,6.50
2019-03-29T20:16:09.832Z,7.80
2019-03-29T20:18:40.214Z,6.27
2019-03-29T20:21:10.515Z,6.93
2019-03-29T20:23:40.563Z,7.00
2019-03-29T20:26:10.588Z,6.20
2019-03-29T20:28:40.636Z,10.53
2019-03-29T20:31:10.674Z,7.63
2019-03-29T20:33:40.713Z,7.80
2019-03-29T20:38:50.396Z,8.77
2019-03-29T20:43:59.789Z,8.63
2019-03-29T20:46:29.828Z,8.27
2019-03-29T20:48:59.925Z,7.97
2019-03-29T20:51:30.286Z,7.10
2019-03-29T20:54:00.586Z,7.63
2019-03-29T20:56:30.911Z,10.67
2019-03-29T21:01:40.618Z,11.33
2019-03-29T21:04:10.668Z,7.90
2019-03-29T21:06:40.736Z,7.43
2019-03-29T21:09:11.129Z,8.90
2019-03-29T21:11:41.227Z,6.80
2019-03-29T21:14:11.261Z,7.90
2019-03-29T21:19:20.700Z,7.33
2019-03-29T21:21:51.028Z,7.47
2019-03-29T21:24:21.087Z,8.03
2019-03-29T21:26:51.119Z,7.87
2019-03-29T21:29:21.164Z,9.00
2019-03-29T21:34:30.563Z,9.53
2019-03-29T21:37:00.600Z,8.27
2019-03-29T21:39:31.331Z,7.97
2019-03-29T21:44:40.047Z,7.87
2019-03-29T21:49:49.490Z,8.50
2019-03-29T21:52:19.495Z,9.10
2019-03-29T21:54:49.955Z,11.10
2019-03-29T21:57:20.072Z,10.17
2019-03-29T22:02:29.706Z,10.97
2019-03-29T22:04:59.760Z,9.97
2019-03-29T22:10:09.559Z,8.60
2019-03-29T22:12:42.804Z,7.43
2019-03-29T22:17:48.985Z,8.57
2019-03-29T22:22:58.402Z,12.67
2019-03-29T22:28:07.805Z,9.53
2019-03-29T22:30:37.835Z,9.80
2019-03-29T22:33:07.967Z,10.83
2019-03-29T22:35:38.011Z,10.87
2019-03-29T22:38:08.031Z,8.87
2019-03-29T22:43:17.441Z,9.20
2019-03-29T22:45:47.459Z,9.53
2019-03-29T22:48:17.486Z,9.60
2019-03-29T22:50:47.625Z,11.10
2019-03-29T22:53:17.682Z,9.60
2019-03-29T22:55:47.726Z,11.03
2019-03-29T22:58:17.770Z,10.10
2019-03-29T23:03:27.171Z,9.93
2019-03-29T23:05:57.475Z,11.97
2019-03-29T23:08:27.529Z,10.77
2019-03-29T23:10:57.857Z,9.53
2019-03-29T23:13:27.882Z,9.10
2019-03-29T23:15:57.966Z,10.30
2019-03-29T23:18:28.001Z,9.73
2019-03-29T23:20:58.019Z,9.10
2019-03-29T23:26:07.787Z,9.23
2019-03-29T23:28:37.820Z,9.30
2019-03-29T23:31:07.861Z,8.77
2019-03-29T23:33:38.223Z,9.03
2019-03-29T23:38:47.630Z,9.00
2019-03-29T23:41:17.996Z,7.30
2019-03-29T23:43:48.046Z,8.13
2019-03-29T23:46:18.068Z,9.00
2019-03-29T23:51:27.470Z,9.37
2019-03-29T23:53:57.803Z,8.77
2019-03-29T23:56:27.859Z,8.90
2019-03-29T23:58:58.556Z,11.27
